createdAt,value
2023-03-11T00:00:34.297Z,7.70
2023-03-11T00:01:38.676Z,7.20
2023-03-11T00:02:41.054Z,8.50
2023-03-11T00:03:43.634Z,7.50
2023-03-11T00:04:46.092Z,6.80
2023-03-11T00:05:48.723Z,7.10
2023-03-11T00:06:51.501Z,7.64
2023-03-11T00:07:54.341Z,6.80
2023-03-11T00:08:57.011Z,7.80
2023-03-11T00:09:59.470Z,6.20
2023-03-11T00:11:02.709Z,6.50
2023-03-11T00:12:06.711Z,8.30
2023-03-11T00:13:10.113Z,6.20
2023-03-11T00:14:12.699Z,3.10
2023-03-11T00:15:15.317Z,6.40
2023-03-11T00:16:18.858Z,6.90
2023-03-11T00:17:21.917Z,7.82
2023-03-11T00:18:27.609Z,6.55
2023-03-11T00:19:29.983Z,7.00
2023-03-11T00:21:47.565Z,7.00
2023-03-11T00:22:51.216Z,6.50
2023-03-11T00:23:53.843Z,7.40
2023-03-11T00:24:56.390Z,7.70
2023-03-11T00:26:00.631Z,8.70
2023-03-11T00:27:03.460Z,8.50
2023-03-11T00:28:09.976Z,7.00
2023-03-11T00:29:13.500Z,7.80
2023-03-11T00:30:17.675Z,5.60
2023-03-11T00:31:20.316Z,9.20
2023-03-11T00:32:23.943Z,5.80
2023-03-11T00:33:26.795Z,6.30
2023-03-11T00:34:29.379Z,2.18
2023-03-11T00:35:32.517Z,6.60
2023-03-11T00:36:35.291Z,7.30
2023-03-11T00:37:39.085Z,5.10
2023-03-11T00:38:41.823Z,6.70
2023-03-11T00:39:45.024Z,6.40
2023-03-11T00:40:47.748Z,6.30
2023-03-11T00:41:52.044Z,6.40
2023-03-11T00:42:54.718Z,7.40
2023-03-11T00:43:57.141Z,5.90
2023-03-11T00:45:00.165Z,5.36
2023-03-11T00:46:04.288Z,6.10
2023-03-11T00:47:07.213Z,8.20
2023-03-11T00:48:11.499Z,6.90
2023-03-11T00:49:14.456Z,6.40
2023-03-11T00:51:36.530Z,6.00
2023-03-11T00:52:41.143Z,7.30
2023-03-11T00:53:44.243Z,7.20
2023-03-11T00:54:46.912Z,6.40
2023-03-11T00:55:49.906Z,6.40
2023-03-11T00:56:52.637Z,5.70
2023-03-11T00:57:56.466Z,5.40
2023-03-11T00:59:00.930Z,7.00
2023-03-11T01:00:06.472Z,7.80
2023-03-11T01:01:15.595Z,5.40
2023-03-11T01:02:19.203Z,7.00
2023-03-11T01:03:22.522Z,4.50
2023-03-11T01:04:26.000Z,6.70
2023-03-11T01:05:30.349Z,5.90
2023-03-11T01:06:44.872Z,6.90
2023-03-11T01:07:38.170Z,6.60
2023-03-11T01:08:40.718Z,6.00
2023-03-11T01:09:43.252Z,5.40
2023-03-11T01:10:46.705Z,3.00
2023-03-11T01:11:49.843Z,5.60
2023-03-11T01:12:52.485Z,5.80
2023-03-11T01:13:56.363Z,6.50
2023-03-11T01:14:58.790Z,6.90
2023-03-11T01:16:03.233Z,5.60
2023-03-11T01:17:05.961Z,6.10
2023-03-11T01:18:08.508Z,6.60
2023-03-11T01:19:11.053Z,5.80
2023-03-11T01:20:14.070Z,6.90
2023-03-11T01:21:16.660Z,6.64
2023-03-11T01:22:19.318Z,8.40
2023-03-11T01:23:22.230Z,5.73
2023-03-11T01:24:25.694Z,7.45
2023-03-11T01:25:28.200Z,8.40
2023-03-11T01:26:33.273Z,9.00
2023-03-11T01:27:35.971Z,7.09
2023-03-11T01:28:39.424Z,8.00
2023-03-11T01:29:41.945Z,9.36
2023-03-11T01:30:44.788Z,8.60
2023-03-11T01:31:47.569Z,9.55
2023-03-11T01:32:50.906Z,9.40
2023-03-11T01:33:53.428Z,8.10
2023-03-11T01:34:55.878Z,8.80
2023-03-11T01:35:58.483Z,8.10
2023-03-11T01:37:03.415Z,8.50
2023-03-11T01:38:06.003Z,8.90
2023-03-11T01:39:08.577Z,8.50
2023-03-11T01:40:15.682Z,8.40
2023-03-11T01:41:18.379Z,5.30
2023-03-11T01:42:21.779Z,9.09
2023-03-11T01:43:46.684Z,8.20
2023-03-11T01:44:51.719Z,6.80
2023-03-11T01:45:58.167Z,7.80
2023-03-11T01:47:05.787Z,9.00
2023-03-11T01:48:10.155Z,8.90
2023-03-11T01:49:12.866Z,8.36
2023-03-11T01:50:17.027Z,8.64
2023-03-11T01:51:25.894Z,9.20
2023-03-11T01:52:29.792Z,8.60
2023-03-11T01:53:33.842Z,9.60
2023-03-11T01:54:38.031Z,8.40
2023-03-11T01:55:41.466Z,9.00
2023-03-11T01:56:44.355Z,8.00
2023-03-11T01:57:47.176Z,7.60
2023-03-11T01:58:51.731Z,8.00
2023-03-11T01:59:57.264Z,9.10
2023-03-11T02:01:00.425Z,8.40
2023-03-11T02:02:15.745Z,6.70
2023-03-11T02:03:21.945Z,9.30
2023-03-11T02:04:26.338Z,6.90
2023-03-11T02:05:29.165Z,9.20
2023-03-11T02:06:32.338Z,7.27
2023-03-11T02:07:36.294Z,4.00
2023-03-11T02:08:40.108Z,9.10
2023-03-11T02:09:43.305Z,9.60
2023-03-11T02:10:46.237Z,8.50
2023-03-11T02:11:50.244Z,8.50
2023-03-11T02:12:53.089Z,6.40
2023-03-11T02:14:00.948Z,7.40
2023-03-11T02:15:04.551Z,8.00
2023-03-11T02:16:08.602Z,8.40
2023-03-11T02:17:11.362Z,7.50
2023-03-11T02:18:14.118Z,7.20
2023-03-11T02:19:41.401Z,7.00
2023-03-11T02:21:21.732Z,7.80
2023-03-11T02:22:24.420Z,7.10
2023-03-11T02:23:30.971Z,8.20
2023-03-11T02:24:40.653Z,8.80
2023-03-11T02:25:54.769Z,7.60
2023-03-11T02:27:08.739Z,6.00
2023-03-11T02:28:12.318Z,7.00
2023-03-11T02:29:15.080Z,7.70
2023-03-11T02:30:19.870Z,7.20
2023-03-11T02:31:22.809Z,7.00
2023-03-11T02:32:25.892Z,8.18
2023-03-11T02:33:31.034Z,7.20
2023-03-11T02:34:34.997Z,5.80
2023-03-11T02:35:38.490Z,6.50
2023-03-11T02:36:42.330Z,7.10
2023-03-11T02:37:48.100Z,6.70
2023-03-11T02:38:51.478Z,6.40
2023-03-11T02:39:56.200Z,7.00
2023-03-11T02:41:01.335Z,5.80
2023-03-11T02:42:17.009Z,8.70
2023-03-11T02:43:23.968Z,6.00
2023-03-11T02:44:26.736Z,6.20
2023-03-11T02:45:31.358Z,6.50
2023-03-11T02:46:35.159Z,7.10
2023-03-11T02:47:38.944Z,6.10
2023-03-11T02:48:43.108Z,6.20
2023-03-11T02:49:48.201Z,7.20
2023-03-11T02:50:51.420Z,7.00
2023-03-11T02:51:54.203Z,7.00
2023-03-11T02:52:56.721Z,6.50
2023-03-11T02:54:01.054Z,6.80
2023-03-11T02:55:04.961Z,6.70
2023-03-11T02:56:08.078Z,7.00
2023-03-11T02:57:10.710Z,5.70
2023-03-11T02:58:13.328Z,6.50
2023-03-11T02:59:15.995Z,7.10
2023-03-11T03:00:20.637Z,7.30
2023-03-11T03:01:24.889Z,5.00
2023-03-11T03:02:27.550Z,5.20
2023-03-11T03:03:30.196Z,7.20
2023-03-11T03:04:33.750Z,6.80
2023-03-11T03:05:36.316Z,7.40
2023-03-11T03:06:39.315Z,6.00
2023-03-11T03:07:43.478Z,6.80
2023-03-11T03:08:46.070Z,6.10
2023-03-11T03:09:49.054Z,6.91
2023-03-11T03:10:51.673Z,7.30
2023-03-11T03:11:54.121Z,6.90
2023-03-11T03:12:57.089Z,6.50
2023-03-11T03:14:00.695Z,6.20
2023-03-11T03:15:04.074Z,5.45
2023-03-11T03:16:07.391Z,6.50
2023-03-11T03:17:10.014Z,7.50
2023-03-11T03:18:14.075Z,6.40
2023-03-11T03:19:17.116Z,7.80
2023-03-11T03:20:22.125Z,7.40
2023-03-11T03:21:26.632Z,7.50
2023-03-11T03:22:29.733Z,7.40
2023-03-11T03:24:46.574Z,5.60
2023-03-11T03:25:49.351Z,7.18
2023-03-11T03:26:52.485Z,7.90
2023-03-11T03:27:55.067Z,6.90
2023-03-11T03:28:57.700Z,5.80
2023-03-11T03:30:00.141Z,8.00
2023-03-11T03:32:21.059Z,8.40
2023-03-11T03:33:23.894Z,8.40
2023-03-11T03:34:26.236Z,7.50
2023-03-11T03:35:29.346Z,8.40
2023-03-11T03:36:45.641Z,8.00
2023-03-11T03:37:49.528Z,8.10
2023-03-11T03:38:56.158Z,7.90
2023-03-11T03:40:00.520Z,9.10
2023-03-11T03:41:04.442Z,7.60
2023-03-11T03:42:08.074Z,9.10
2023-03-11T03:43:12.165Z,7.10
2023-03-11T03:44:16.821Z,9.00
2023-03-11T03:45:20.066Z,8.00
2023-03-11T03:46:24.163Z,8.40
2023-03-11T03:47:28.381Z,8.40
2023-03-11T03:48:31.077Z,8.70
2023-03-11T03:49:34.226Z,5.10
2023-03-11T03:50:36.766Z,8.00
2023-03-11T03:51:39.201Z,9.50
2023-03-11T03:52:44.828Z,6.70
2023-03-11T03:53:47.634Z,7.20
2023-03-11T03:54:50.058Z,7.90
2023-03-11T03:55:55.077Z,7.18
2023-03-11T03:56:58.745Z,6.10
2023-03-11T03:58:02.132Z,8.70
2023-03-11T03:59:06.487Z,7.40
2023-03-11T04:00:12.052Z,7.20
2023-03-11T04:01:17.646Z,6.80
2023-03-11T04:02:20.164Z,6.80
2023-03-11T04:03:24.174Z,9.36
2023-03-11T04:04:28.702Z,9.70
2023-03-11T04:05:31.702Z,7.20
2023-03-11T04:06:34.722Z,5.60
2023-03-11T04:07:39.402Z,8.30
2023-03-11T04:08:42.486Z,7.80
2023-03-11T04:09:46.634Z,6.90
2023-03-11T04:12:13.961Z,8.10
2023-03-11T04:13:17.330Z,8.90
2023-03-11T04:14:20.372Z,8.00
2023-03-11T04:15:26.001Z,7.80
2023-03-11T04:16:29.612Z,2.60
2023-03-11T04:17:34.159Z,8.50
2023-03-11T04:18:37.250Z,7.90
2023-03-11T04:19:41.503Z,7.50
2023-03-11T04:20:45.901Z,8.70
2023-03-11T04:21:51.332Z,9.10
2023-03-11T04:22:53.998Z,7.10
2023-03-11T04:23:58.445Z,7.60
2023-03-11T04:25:04.615Z,8.40
2023-03-11T04:26:08.609Z,6.70
2023-03-11T04:27:12.484Z,8.50
2023-03-11T04:28:15.267Z,8.70
2023-03-11T04:29:20.006Z,8.40
2023-03-11T04:30:24.265Z,9.30
2023-03-11T04:31:30.037Z,7.80
2023-03-11T04:32:33.195Z,7.80
2023-03-11T04:33:35.999Z,8.09
2023-03-11T04:34:39.293Z,9.10
2023-03-11T04:35:41.773Z,6.90
2023-03-11T04:36:44.545Z,8.36
2023-03-11T04:37:47.857Z,7.40
2023-03-11T04:38:50.647Z,7.55
2023-03-11T04:39:53.871Z,8.73
2023-03-11T04:41:02.046Z,7.70
2023-03-11T04:42:05.352Z,8.20
2023-03-11T04:43:08.531Z,8.60
2023-03-11T04:44:11.237Z,8.40
2023-03-11T04:45:14.646Z,7.90
2023-03-11T04:46:17.878Z,8.10
2023-03-11T04:47:21.517Z,8.50
2023-03-11T04:48:27.608Z,8.27
2023-03-11T04:49:30.662Z,8.10
2023-03-11T04:50:33.117Z,7.40
2023-03-11T04:51:37.808Z,8.30
2023-03-11T04:52:41.085Z,7.70
2023-03-11T04:53:44.057Z,9.70
2023-03-11T04:54:47.810Z,6.70
2023-03-11T04:55:51.813Z,7.90
2023-03-11T04:56:54.384Z,7.60
2023-03-11T04:57:57.637Z,6.73
2023-03-11T04:59:00.824Z,6.50
2023-03-11T05:00:11.436Z,7.20
2023-03-11T05:01:14.972Z,8.10
2023-03-11T05:02:19.262Z,6.40
2023-03-11T05:03:23.698Z,6.00
2023-03-11T05:04:26.454Z,7.00
2023-03-11T05:05:29.083Z,6.80
2023-03-11T05:06:31.803Z,8.00
2023-03-11T05:07:35.436Z,7.00
2023-03-11T05:08:38.389Z,7.00
2023-03-11T05:09:41.300Z,7.10
2023-03-11T05:10:44.285Z,7.20
2023-03-11T05:11:48.027Z,6.36
2023-03-11T05:12:51.734Z,6.80
2023-03-11T05:13:55.452Z,6.90
2023-03-11T05:14:58.496Z,6.40
2023-03-11T05:16:01.883Z,6.50
2023-03-11T05:17:04.914Z,6.50
2023-03-11T05:18:07.669Z,8.10
2023-03-11T05:19:29.796Z,6.60
2023-03-11T05:20:33.247Z,6.70
2023-03-11T05:21:36.373Z,7.30
2023-03-11T05:22:40.124Z,6.00
2023-03-11T05:23:45.108Z,8.50
2023-03-11T05:24:48.442Z,9.10
2023-03-11T05:25:51.177Z,5.55
2023-03-11T05:26:53.916Z,6.27
2023-03-11T05:27:56.564Z,5.70
2023-03-11T05:28:59.900Z,5.64
2023-03-11T05:30:04.371Z,6.50
2023-03-11T05:31:09.650Z,5.70
2023-03-11T05:32:13.738Z,6.80
2023-03-11T05:33:17.564Z,6.50
2023-03-11T05:34:20.591Z,5.90
2023-03-11T05:35:24.067Z,6.55
2023-03-11T05:36:27.160Z,9.20
2023-03-11T05:37:31.550Z,7.00
2023-03-11T05:38:36.412Z,7.50
2023-03-11T05:39:39.315Z,8.00
2023-03-11T05:40:42.117Z,16.10
2023-03-11T05:41:45.063Z,26.91
2023-03-11T05:42:48.815Z,35.10
2023-03-11T05:43:52.077Z,38.30
2023-03-11T05:44:54.726Z,33.10
2023-03-11T05:45:58.352Z,44.40
2023-03-11T05:47:01.445Z,30.40
2023-03-11T05:48:04.812Z,38.10
2023-03-11T05:49:07.771Z,36.00
2023-03-11T05:50:12.306Z,28.20
2023-03-11T05:51:15.599Z,32.00
2023-03-11T05:52:18.974Z,25.90
2023-03-11T05:53:21.587Z,25.70
2023-03-11T05:54:25.180Z,25.90
2023-03-11T05:55:28.146Z,26.00
2023-03-11T05:56:30.856Z,23.00
2023-03-11T05:57:33.714Z,22.73
2023-03-11T05:58:38.262Z,20.18
2023-03-11T05:59:42.096Z,18.70
2023-03-11T06:00:45.279Z,19.90
2023-03-11T06:01:48.949Z,18.30
2023-03-11T06:02:52.479Z,17.80
2023-03-11T06:03:55.423Z,17.30
2023-03-11T06:04:59.277Z,16.00
2023-03-11T06:06:02.110Z,16.00
2023-03-11T06:07:06.491Z,16.90
2023-03-11T06:08:10.798Z,14.70
2023-03-11T06:09:14.448Z,14.00
2023-03-11T06:10:18.922Z,14.30
2023-03-11T06:11:23.780Z,13.60
2023-03-11T06:12:26.946Z,13.40
2023-03-11T06:13:31.557Z,9.70
2023-03-11T06:14:34.363Z,15.00
2023-03-11T06:15:37.786Z,14.60
2023-03-11T06:16:41.884Z,12.30
2023-03-11T06:17:45.914Z,14.80
2023-03-11T06:18:48.593Z,14.80
2023-03-11T06:19:52.880Z,15.40
2023-03-11T06:20:59.645Z,12.60
2023-03-11T06:22:03.356Z,11.20
2023-03-11T06:23:07.241Z,11.90
2023-03-11T06:24:12.539Z,13.70
2023-03-11T06:25:16.049Z,12.50
2023-03-11T06:26:20.668Z,11.90
2023-03-11T06:27:24.131Z,14.00
2023-03-11T06:28:28.321Z,14.00
2023-03-11T06:29:31.296Z,14.00
2023-03-11T06:30:34.125Z,13.10
2023-03-11T06:31:39.643Z,12.70
2023-03-11T06:32:45.862Z,13.50
2023-03-11T06:33:48.680Z,12.20
2023-03-11T06:34:52.212Z,13.20
2023-03-11T06:37:29.517Z,11.40
2023-03-11T06:38:32.627Z,10.20
2023-03-11T06:39:35.829Z,11.00
2023-03-11T06:40:40.239Z,13.10
2023-03-11T06:41:42.744Z,12.30
2023-03-11T06:44:10.347Z,10.20
2023-03-11T06:45:14.657Z,10.50
2023-03-11T06:46:21.962Z,10.20
2023-03-11T06:47:25.897Z,11.00
2023-03-11T06:48:28.432Z,10.80
2023-03-11T06:49:31.147Z,11.00
2023-03-11T06:50:33.956Z,9.30
2023-03-11T06:51:37.591Z,9.10
2023-03-11T06:52:40.529Z,9.80
2023-03-11T06:53:43.971Z,11.60
2023-03-11T06:54:47.900Z,10.30
2023-03-11T06:56:09.884Z,8.70
2023-03-11T06:57:16.006Z,9.60
2023-03-11T06:58:18.841Z,9.30
2023-03-11T06:59:22.885Z,9.50
2023-03-11T07:00:26.014Z,8.50
2023-03-11T07:01:30.667Z,9.10
2023-03-11T07:02:33.648Z,10.20
2023-03-11T07:03:36.992Z,8.40
2023-03-11T07:04:39.639Z,6.90
2023-03-11T07:05:42.824Z,9.70
2023-03-11T07:06:47.374Z,8.20
2023-03-11T07:07:54.459Z,10.40
2023-03-11T07:08:57.055Z,8.10
2023-03-11T07:10:01.116Z,8.80
2023-03-11T07:12:24.835Z,10.30
2023-03-11T07:13:28.255Z,10.90
2023-03-11T07:14:31.221Z,9.60
2023-03-11T07:15:34.979Z,9.10
2023-03-11T07:16:39.739Z,9.20
2023-03-11T07:17:44.086Z,10.60
2023-03-11T07:18:47.724Z,10.30
2023-03-11T07:19:51.555Z,8.50
2023-03-11T07:20:55.127Z,5.80
2023-03-11T07:21:57.627Z,9.70
2023-03-11T07:23:00.986Z,9.00
2023-03-11T07:24:04.931Z,8.90
2023-03-11T07:25:07.894Z,11.00
2023-03-11T07:26:12.575Z,7.30
2023-03-11T07:27:15.497Z,9.00
2023-03-11T07:28:18.938Z,9.60
2023-03-11T07:29:21.879Z,8.50
2023-03-11T07:30:27.552Z,10.10
2023-03-11T07:31:31.713Z,8.60
2023-03-11T07:32:34.625Z,10.10
2023-03-11T07:33:38.707Z,9.40
2023-03-11T07:34:41.224Z,10.40
2023-03-11T07:35:44.546Z,11.09
2023-03-11T07:36:47.407Z,8.00
2023-03-11T07:37:50.071Z,7.80
2023-03-11T07:38:57.797Z,7.20
2023-03-11T07:40:00.390Z,8.00
2023-03-11T07:41:03.157Z,7.50
2023-03-11T07:42:05.941Z,8.30
2023-03-11T07:43:13.358Z,8.00
2023-03-11T07:44:17.092Z,4.70
2023-03-11T07:45:20.161Z,10.30
2023-03-11T07:46:24.887Z,11.50
2023-03-11T07:47:27.953Z,10.30
2023-03-11T07:48:31.685Z,11.80
2023-03-11T07:49:35.595Z,14.80
2023-03-11T07:50:38.846Z,12.20
2023-03-11T07:51:43.428Z,12.91
2023-03-11T07:52:46.194Z,12.60
2023-03-11T07:53:48.971Z,10.09
2023-03-11T07:54:51.429Z,13.40
2023-03-11T07:55:57.440Z,13.30
2023-03-11T07:57:00.801Z,13.60
2023-03-11T07:58:04.284Z,12.30
2023-03-11T07:59:07.745Z,10.80
2023-03-11T08:00:13.168Z,10.00
2023-03-11T08:01:24.413Z,11.40
2023-03-11T08:02:28.247Z,9.80
2023-03-11T08:03:33.824Z,11.70
2023-03-11T08:04:36.511Z,11.50
2023-03-11T08:05:39.996Z,11.70
2023-03-11T08:06:44.987Z,12.10
2023-03-11T08:07:47.791Z,11.20
2023-03-11T08:08:51.473Z,11.82
2023-03-11T08:09:54.975Z,11.70
2023-03-11T08:10:57.492Z,9.90
2023-03-11T08:12:00.042Z,11.40
2023-03-11T08:13:02.691Z,5.30
2023-03-11T08:14:05.348Z,10.20
2023-03-11T08:15:14.961Z,7.50
2023-03-11T08:16:20.187Z,10.90
2023-03-11T08:17:23.182Z,10.10
2023-03-11T08:18:26.669Z,9.90
2023-03-11T08:19:31.549Z,9.50
2023-03-11T08:20:35.284Z,10.70
2023-03-11T08:21:37.995Z,8.50
2023-03-11T08:22:55.561Z,9.30
2023-03-11T08:23:48.130Z,11.40
2023-03-11T08:24:52.690Z,12.20
2023-03-11T08:25:55.143Z,11.30
2023-03-11T08:26:58.085Z,11.09
2023-03-11T08:28:00.843Z,8.30
2023-03-11T08:29:03.588Z,10.27
2023-03-11T08:30:08.486Z,10.10
2023-03-11T08:32:31.043Z,10.30
2023-03-11T08:33:33.520Z,10.91
2023-03-11T08:34:38.539Z,13.60
2023-03-11T08:35:41.568Z,11.50
2023-03-11T08:36:45.377Z,11.90
2023-03-11T08:37:48.472Z,7.18
2023-03-11T08:38:52.860Z,15.10
2023-03-11T08:39:55.358Z,14.20
2023-03-11T08:40:57.933Z,15.90
2023-03-11T08:42:02.492Z,14.90
2023-03-11T08:43:05.944Z,13.30
2023-03-11T08:44:08.662Z,17.55
2023-03-11T08:45:13.011Z,17.10
2023-03-11T08:46:25.552Z,17.30
2023-03-11T08:47:29.130Z,15.20
2023-03-11T08:48:31.884Z,15.30
2023-03-11T08:49:34.663Z,12.27
2023-03-11T08:50:52.872Z,16.18
2023-03-11T08:51:43.457Z,18.40
2023-03-11T08:52:46.607Z,14.91
2023-03-11T08:53:50.111Z,15.70
2023-03-11T08:54:53.614Z,20.80
2023-03-11T08:55:56.107Z,22.50
2023-03-11T08:57:03.257Z,19.10
2023-03-11T08:58:05.644Z,20.10
2023-03-11T08:59:09.039Z,14.80
2023-03-11T09:00:13.289Z,17.60
2023-03-11T09:01:16.192Z,18.70
2023-03-11T09:02:18.824Z,19.40
2023-03-11T09:03:21.416Z,16.40
2023-03-11T09:04:24.396Z,18.00
2023-03-11T09:05:28.237Z,17.10
2023-03-11T09:06:31.490Z,18.80
2023-03-11T09:07:35.187Z,19.30
2023-03-11T09:08:38.880Z,16.60
2023-03-11T09:09:42.398Z,18.50
2023-03-11T09:10:45.190Z,17.20
2023-03-11T09:11:47.998Z,16.00
2023-03-11T09:12:51.994Z,16.91
2023-03-11T09:13:54.544Z,18.60
2023-03-11T09:14:57.169Z,18.18
2023-03-11T09:16:01.706Z,20.10
2023-03-11T09:18:21.109Z,17.80
2023-03-11T09:19:23.854Z,19.50
2023-03-11T09:20:26.382Z,20.00
2023-03-11T09:21:30.069Z,21.30
2023-03-11T09:22:32.786Z,15.10
2023-03-11T09:23:36.177Z,19.82
2023-03-11T09:24:38.712Z,16.70
2023-03-11T09:25:41.128Z,19.20
2023-03-11T09:26:44.216Z,23.70
2023-03-11T09:27:46.918Z,18.30
2023-03-11T09:28:49.760Z,18.00
2023-03-11T09:29:52.478Z,18.50
2023-03-11T09:30:54.943Z,18.64
2023-03-11T09:31:59.004Z,17.70
2023-03-11T09:33:17.361Z,19.10
2023-03-11T09:34:19.974Z,18.10
2023-03-11T09:35:22.607Z,20.50
2023-03-11T09:36:26.200Z,25.50
2023-03-11T09:37:30.789Z,21.73
2023-03-11T09:38:33.464Z,20.10
2023-03-11T09:39:36.088Z,20.18
2023-03-11T09:40:50.677Z,17.30
2023-03-11T09:43:32.717Z,21.00
2023-03-11T09:44:45.324Z,20.90
2023-03-11T09:46:13.804Z,22.70
2023-03-11T09:47:58.066Z,18.70
2023-03-11T09:49:06.920Z,24.50
2023-03-11T09:50:15.061Z,18.60
2023-03-11T09:51:24.261Z,18.50
2023-03-11T09:52:39.458Z,20.20
2023-03-11T09:53:43.970Z,19.60
2023-03-11T09:54:48.322Z,19.00
2023-03-11T09:57:15.858Z,19.60
2023-03-11T09:58:35.604Z,19.00
2023-03-11T09:59:38.348Z,19.20
2023-03-11T10:00:42.103Z,21.20
2023-03-11T10:01:47.719Z,15.60
2023-03-11T10:02:50.721Z,20.80
2023-03-11T10:03:59.399Z,20.70
2023-03-11T10:06:41.553Z,16.60
2023-03-11T10:07:46.915Z,17.10
2023-03-11T10:10:16.058Z,19.70
2023-03-11T10:11:30.912Z,23.10
2023-03-11T10:12:52.625Z,20.80
2023-03-11T10:14:05.011Z,19.00
2023-03-11T10:15:17.296Z,22.10
2023-03-11T10:16:27.694Z,20.00
2023-03-11T10:19:09.619Z,19.90
2023-03-11T10:20:23.475Z,13.80
2023-03-11T10:21:41.733Z,22.00
2023-03-11T10:23:07.219Z,21.60
2023-03-11T10:24:31.542Z,25.10
2023-03-11T10:25:56.233Z,12.40
2023-03-11T10:27:03.614Z,21.20
2023-03-11T10:28:15.126Z,19.50
2023-03-11T10:29:27.848Z,19.30
2023-03-11T10:30:40.281Z,20.10
2023-03-11T10:33:27.172Z,16.70
2023-03-11T10:35:52.074Z,25.80
2023-03-11T10:37:13.546Z,19.80
2023-03-11T10:38:35.481Z,21.70
2023-03-11T10:39:39.033Z,20.90
2023-03-11T10:40:44.502Z,23.00
2023-03-11T10:41:55.774Z,17.30
2023-03-11T10:43:02.263Z,18.00
2023-03-11T10:44:18.161Z,20.30
2023-03-11T10:45:22.885Z,22.40
2023-03-11T10:46:27.007Z,19.50
2023-03-11T10:47:30.095Z,22.50
2023-03-11T10:48:32.995Z,21.80
2023-03-11T10:49:35.503Z,21.90
2023-03-11T10:50:59.204Z,22.60
2023-03-11T10:52:14.546Z,22.60
2023-03-11T10:53:19.668Z,23.00
2023-03-11T10:54:25.956Z,22.60
2023-03-11T10:55:28.425Z,24.60
2023-03-11T10:56:36.635Z,23.60
2023-03-11T10:57:40.296Z,23.50
2023-03-11T10:58:47.078Z,23.60
2023-03-11T10:59:52.404Z,21.10
2023-03-11T11:01:00.623Z,23.90
2023-03-11T11:03:34.515Z,20.50
2023-03-11T11:04:39.082Z,24.50
2023-03-11T11:05:41.613Z,20.70
2023-03-11T11:06:45.790Z,5.60
2023-03-11T11:07:53.553Z,21.90
2023-03-11T11:10:22.270Z,21.60
2023-03-11T11:11:36.438Z,18.10
2023-03-11T11:13:03.245Z,23.70
2023-03-11T11:14:07.298Z,23.60
2023-03-11T11:15:14.514Z,24.60
2023-03-11T11:16:20.821Z,21.20
2023-03-11T11:18:44.098Z,21.70
2023-03-11T11:19:48.341Z,24.40
2023-03-11T11:20:58.808Z,23.80
2023-03-11T11:22:04.282Z,23.20
2023-03-11T11:23:10.234Z,25.10
2023-03-11T11:24:28.426Z,24.10
2023-03-11T11:25:34.617Z,21.10
2023-03-11T11:26:37.943Z,23.20
2023-03-11T11:27:40.591Z,24.82
2023-03-11T11:28:43.773Z,22.60
2023-03-11T11:29:46.839Z,25.20
2023-03-11T11:32:19.154Z,21.20
2023-03-11T11:33:29.556Z,26.40
2023-03-11T11:34:35.061Z,22.20
2023-03-11T11:35:40.033Z,19.20
2023-03-11T11:36:44.869Z,20.20
2023-03-11T11:37:49.603Z,19.10
2023-03-11T11:38:53.541Z,22.30
2023-03-11T11:39:59.701Z,22.00
2023-03-11T11:41:06.448Z,20.00
2023-03-11T11:42:12.273Z,21.90
2023-03-11T11:43:18.164Z,18.40
2023-03-11T11:44:22.785Z,18.20
2023-03-11T11:48:28.162Z,18.70
2023-03-11T11:49:34.238Z,23.50
2023-03-11T11:50:47.185Z,22.40
2023-03-11T11:52:02.172Z,21.50
2023-03-11T11:53:09.753Z,23.60
2023-03-11T11:54:37.947Z,20.80
2023-03-11T11:57:01.663Z,18.10
2023-03-11T11:58:09.024Z,19.10
2023-03-11T11:59:18.264Z,18.60
2023-03-11T12:00:25.352Z,19.90
2023-03-11T12:03:19.945Z,19.50
2023-03-11T12:05:02.841Z,19.70
2023-03-11T12:06:21.300Z,19.40
2023-03-11T12:07:40.585Z,21.20
2023-03-11T12:09:05.169Z,19.60
2023-03-11T12:10:23.326Z,22.10
2023-03-11T12:11:26.464Z,21.40
2023-03-11T12:13:56.701Z,18.70
2023-03-11T12:15:12.066Z,18.40
2023-03-11T12:16:24.564Z,20.80
2023-03-11T12:17:27.731Z,17.50
2023-03-11T12:18:43.001Z,20.30
2023-03-11T12:19:58.411Z,19.60
2023-03-11T12:21:02.013Z,19.90
2023-03-11T12:23:32.504Z,17.90
2023-03-11T12:25:12.050Z,19.80
2023-03-11T12:26:22.780Z,21.40
2023-03-11T12:27:34.332Z,20.00
2023-03-11T12:29:01.288Z,18.90
2023-03-11T12:30:08.361Z,16.30
2023-03-11T12:31:12.716Z,17.80
2023-03-11T12:32:36.720Z,18.10
2023-03-11T12:33:46.959Z,17.80
2023-03-11T12:34:49.582Z,17.20
2023-03-11T12:35:56.482Z,20.20
2023-03-11T12:37:02.586Z,16.50
2023-03-11T12:38:14.149Z,18.60
2023-03-11T12:39:28.063Z,17.90
2023-03-11T12:40:50.810Z,16.60
2023-03-11T12:42:20.744Z,16.20
2023-03-11T12:43:35.894Z,16.10
2023-03-11T12:44:39.896Z,15.80
2023-03-11T12:45:50.622Z,16.30
2023-03-11T12:47:01.434Z,18.00
2023-03-11T12:48:35.844Z,17.30
2023-03-11T12:49:43.910Z,18.60
2023-03-11T12:50:48.129Z,14.80
2023-03-11T12:52:03.163Z,14.90
2023-03-11T12:53:06.690Z,16.40
2023-03-11T12:56:00.769Z,18.00
2023-03-11T12:57:20.139Z,16.80
2023-03-11T12:58:27.403Z,15.00
2023-03-11T12:59:38.869Z,16.90
2023-03-11T13:02:47.416Z,17.90
2023-03-11T13:04:00.558Z,18.80
2023-03-11T13:05:22.936Z,19.90
2023-03-11T13:06:39.237Z,18.40
2023-03-11T13:07:52.345Z,18.70
2023-03-11T13:08:56.575Z,15.70
2023-03-11T13:10:18.003Z,19.10
2023-03-11T13:11:36.405Z,18.60
2023-03-11T13:12:49.721Z,18.00
2023-03-11T13:13:52.770Z,21.30
2023-03-11T13:16:38.034Z,19.40
2023-03-11T13:17:41.192Z,18.70
2023-03-11T13:18:44.677Z,19.00
2023-03-11T13:19:48.943Z,19.60
2023-03-11T13:20:59.552Z,18.30
2023-03-11T13:22:04.512Z,20.10
2023-03-11T13:23:15.004Z,18.80
2023-03-11T13:24:29.006Z,15.90
2023-03-11T13:25:35.368Z,18.80
2023-03-11T13:26:49.931Z,18.70
2023-03-11T13:27:53.301Z,18.60
2023-03-11T13:29:35.667Z,19.20
2023-03-11T13:30:40.790Z,17.00
2023-03-11T13:32:21.005Z,17.90
2023-03-11T13:33:28.363Z,20.20
2023-03-11T13:34:45.165Z,18.30
2023-03-11T13:36:08.207Z,20.40
2023-03-11T13:37:31.103Z,17.70
2023-03-11T13:38:46.273Z,19.40
2023-03-11T13:41:32.482Z,19.50
2023-03-11T13:42:45.200Z,20.20
2023-03-11T13:43:48.717Z,19.20
2023-03-11T13:44:51.464Z,17.70
2023-03-11T13:46:20.396Z,19.90
2023-03-11T13:47:24.175Z,18.60
2023-03-11T13:48:32.591Z,17.80
2023-03-11T13:49:44.429Z,21.80
2023-03-11T13:51:13.905Z,22.50
2023-03-11T13:52:20.313Z,19.80
2023-03-11T13:53:27.694Z,17.50
2023-03-11T13:54:33.846Z,17.00
2023-03-11T13:55:39.834Z,17.90
2023-03-11T13:58:03.263Z,20.80
2023-03-11T13:59:27.837Z,18.30
2023-03-11T14:00:31.912Z,17.70
2023-03-11T14:01:37.637Z,21.10
2023-03-11T14:02:46.357Z,20.80
2023-03-11T14:03:49.713Z,16.80
2023-03-11T14:05:14.598Z,19.10
2023-03-11T14:06:19.891Z,20.20
2023-03-11T14:07:25.964Z,19.90
2023-03-11T14:08:38.259Z,19.70
2023-03-11T14:09:42.253Z,19.00
2023-03-11T14:12:09.839Z,17.60
2023-03-11T14:13:19.647Z,20.80
2023-03-11T14:14:49.375Z,19.30
2023-03-11T14:16:17.631Z,16.40
2023-03-11T14:17:20.398Z,19.20
2023-03-11T14:18:28.931Z,18.64
2023-03-11T14:19:31.917Z,21.00
2023-03-11T14:20:34.700Z,18.00
2023-03-11T14:21:40.499Z,18.45
2023-03-11T14:22:45.457Z,17.50
2023-03-11T14:23:53.108Z,17.50
2023-03-11T14:24:58.520Z,19.20
2023-03-11T14:26:05.058Z,18.70
2023-03-11T14:27:10.305Z,19.30
2023-03-11T14:28:15.490Z,19.80
2023-03-11T14:29:20.377Z,14.80
2023-03-11T14:30:28.408Z,16.30
2023-03-11T14:31:39.322Z,20.20
2023-03-11T14:32:42.044Z,18.10
2023-03-11T14:33:59.965Z,21.50
2023-03-11T14:36:21.402Z,19.70
2023-03-11T14:37:28.911Z,17.18
2023-03-11T14:38:32.704Z,16.20
2023-03-11T14:39:38.196Z,19.20
2023-03-11T14:40:41.474Z,16.90
2023-03-11T14:41:45.249Z,19.70
2023-03-11T14:42:51.858Z,18.30
2023-03-11T14:43:54.372Z,19.40
2023-03-11T14:45:05.291Z,18.80
2023-03-11T14:46:08.343Z,14.80
2023-03-11T14:48:36.991Z,17.80
2023-03-11T14:49:40.888Z,17.50
2023-03-11T14:50:46.616Z,19.70
2023-03-11T14:51:53.320Z,17.60
2023-03-11T14:53:21.183Z,19.80
2023-03-11T14:54:25.803Z,20.40
2023-03-11T14:55:34.811Z,19.60
2023-03-11T14:56:41.727Z,18.20
2023-03-11T14:58:05.764Z,17.50
2023-03-11T14:59:22.845Z,18.50
2023-03-11T15:01:40.375Z,18.60
2023-03-11T15:02:55.537Z,15.80
2023-03-11T15:05:39.814Z,22.60
2023-03-11T15:06:44.612Z,20.50
2023-03-11T15:07:49.492Z,22.10
2023-03-11T15:09:01.192Z,20.50
2023-03-11T15:10:09.286Z,20.80
2023-03-11T15:11:16.438Z,21.00
2023-03-11T15:12:36.366Z,26.50
2023-03-11T15:13:47.439Z,25.60
2023-03-11T15:14:51.714Z,23.20
2023-03-11T15:15:58.565Z,24.20
2023-03-11T15:17:41.221Z,25.80
2023-03-11T15:18:24.641Z,22.20